Time;durP1;ratioP1;P1;durP2;ratioP2;P2;SDS_P1;SDS_P2;PMS_P1;PMS_P2;Temp;Humidity;BMP_temperature;BMP_pressure;BME280_temperature;BME280_humidity;BME280_pressure;Samples;Min_cycle;Max_cycle;Signal;HPM_P1;HPM_P2
2021/07/21 00:01:08;;;;;;;21.15;14.10;;;;;;;18.68;83.68;99366.25;1821031;77;22157;-81
2021/07/21 00:03:34;;;;;;;18.65;13.95;;;;;;;18.65;83.82;99365.31;1805756;77;21036;-81
2021/07/21 00:06:01;;;;;;;20.00;14.40;;;;;;;18.62;83.86;99373.17;1805824;77;20956;-81
2021/07/21 00:08:27;;;;;;;19.90;14.75;;;;;;;18.61;84.04;99366.17;1799820;77;21460;-80
2021/07/21 00:13:27;;;;;;;20.92;14.98;;;;;;;18.60;84.18;99374.70;1791457;77;21270;-80
2021/07/21 00:13:36;;;;;;;19.60;14.90;;;;;;;18.61;84.23;99372.86;1794234;77;21846;-81
2021/07/21 00:16:05;;;;;;;19.87;14.55;;;;;;;18.60;84.31;99370.70;1827914;77;20976;-82
2021/07/21 00:18:32;;;;;;;22.13;16.10;;;;;;;18.59;84.30;99370.39;1811021;77;21633;-81
2021/07/21 00:20:59;;;;;;;22.80;15.83;;;;;;;18.56;84.37;99376.14;1803879;79;21086;-81
2021/07/21 00:23:26;;;;;;;19.82;16.25;;;;;;;18.51;84.44;99365.71;1783623;79;21004;-82
2021/07/21 00:25:52;;;;;;;19.65;15.93;;;;;;;18.48;84.58;99365.60;1793585;78;22166;-82
2021/07/21 00:28:19;;;;;;;20.77;16.57;;;;;;;18.47;84.65;99363.13;1807299;77;20976;-82
2021/07/21 00:30:46;;;;;;;18.02;15.40;;;;;;;18.46;84.71;99367.66;1814990;79;20988;-81
2021/07/21 00:33:14;;;;;;;20.72;16.60;;;;;;;18.43;84.80;99360.52;1814333;79;21033;-82
2021/07/21 00:35:42;;;;;;;18.90;15.28;;;;;;;18.39;84.91;99357.42;1799905;79;20988;-81
2021/07/21 00:38:09;;;;;;;19.20;15.85;;;;;;;18.39;85.04;99357.94;1816229;77;21800;-81
2021/07/21 00:40:37;;;;;;;19.82;15.23;;;;;;;18.36;85.16;99352.99;1812378;78;21471;-82
2021/07/21 00:43:04;;;;;;;18.62;14.60;;;;;;;18.35;85.29;99350.83;1801447;77;21042;-81
2021/07/21 00:45:32;;;;;;;17.37;13.93;;;;;;;18.34;85.42;99353.70;1795136;77;21011;-81
2021/07/21 00:47:58;;;;;;;17.87;14.03;;;;;;;18.34;85.53;99353.70;1782110;77;21067;-82
2021/07/21 00:50:28;;;;;;;16.07;13.68;;;;;;;18.29;85.70;99358.29;1839869;77;21819;-82
2021/07/21 00:52:54;;;;;;;14.95;12.98;;;;;;;18.27;85.87;99358.48;1815352;77;21044;-81
2021/07/21 00:55:23;;;;;;;18.73;14.03;;;;;;;18.28;85.98;99370.01;1807479;77;20960;-82
2021/07/21 00:57:51;;;;;;;14.13;11.80;;;;;;;18.29;86.16;99368.47;1805970;79;20952;-82
2021/07/21 01:00:19;;;;;;;16.07;12.90;;;;;;;18.30;86.27;99371.97;1804255;77;20996;-81
2021/07/21 01:02:48;;;;;;;14.10;12.40;;;;;;;18.34;86.35;99371.08;1791751;78;21892;-81
2021/07/21 01:05:28;;;;;;;16.02;12.95;;;;;;;18.35;86.44;99364.71;1808627;78;21690;-81
2021/07/21 01:07:57;;;;;;;15.00;12.73;;;;;;;18.36;86.49;99363.17;1814011;77;21005;-80
2021/07/21 01:10:24;;;;;;;18.37;14.28;;;;;;;18.39;86.58;99354.75;1812225;77;21559;-80
2021/07/21 01:13:14;;;;;;;16.05;12.23;;;;;;;18.40;86.70;99355.58;1799846;77;21510;-80
2021/07/21 01:16:04;;;;;;;17.92;13.62;;;;;;;18.42;86.77;99357.02;1821166;77;21813;-81
2021/07/21 01:18:39;;;;;;;18.27;13.65;;;;;;;18.47;86.80;99362.61;1793222;79;21023;-80
2021/07/21 01:21:43;;;;;;;17.95;13.00;;;;;;;18.51;86.84;99361.70;1815198;78;21075;-80
2021/07/21 01:24:26;;;;;;;15.60;12.00;;;;;;;18.56;86.82;99359.27;1783629;79;21079;-80
2021/07/21 01:27:17;;;;;;;17.05;13.48;;;;;;;18.60;86.83;99356.50;1787323;79;20968;-81
2021/07/21 01:29:46;;;;;;;18.15;13.38;;;;;;;18.62;86.79;99365.14;1795036;78;21798;-81
2021/07/21 01:32:14;;;;;;;18.77;14.15;;;;;;;18.65;86.80;99366.66;1803680;78;21444;-81
2021/07/21 01:34:41;;;;;;;16.52;14.35;;;;;;;18.68;86.78;99364.91;1786487;79;21516;-81
2021/07/21 01:37:09;;;;;;;19.02;13.60;;;;;;;18.73;86.74;99363.81;1807048;78;21369;-80
2021/07/21 01:39:42;;;;;;;21.97;13.72;;;;;;;18.76;86.69;99365.56;1798202;78;21099;-81
2021/07/21 01:42:13;;;;;;;19.02;13.68;;;;;;;18.77;86.67;99360.53;1812648;77;21812;-81
2021/07/21 01:44:43;;;;;;;19.95;13.90;;;;;;;18.80;86.64;99355.28;1810930;78;20941;-81
2021/07/21 01:47:09;;;;;;;16.10;13.18;;;;;;;18.82;86.60;99353.26;1793422;78;20965;-80
2021/07/21 01:49:39;;;;;;;15.70;12.82;;;;;;;18.86;86.55;99353.16;1796356;78;21001;-81
2021/07/21 01:52:13;;;;;;;17.00;13.30;;;;;;;18.89;86.46;99350.07;1778914;78;21035;-80
2021/07/21 01:54:41;;;;;;;17.00;13.38;;;;;;;18.91;86.35;99352.03;1783026;79;21807;-81
2021/07/21 01:57:10;;;;;;;15.25;13.15;;;;;;;18.94;86.30;99353.50;1782565;79;20949;-80
2021/07/21 01:59:42;;;;;;;16.05;12.50;;;;;;;18.96;86.22;99358.95;1783469;79;21004;-80
2021/07/21 02:02:11;;;;;;;16.23;12.75;;;;;;;18.98;86.09;99354.73;1805771;77;21074;-80
2021/07/21 02:04:43;;;;;;;14.87;11.93;;;;;;;18.97;86.06;99352.58;1782599;77;21004;-80
2021/07/21 02:07:10;;;;;;;15.43;12.15;;;;;;;18.95;86.07;99346.61;1804614;78;22493;-80
2021/07/21 02:09:39;;;;;;;15.70;12.18;;;;;;;18.96;86.10;99346.09;1813751;78;20980;-81
2021/07/21 02:12:07;;;;;;;13.50;11.65;;;;;;;18.97;86.10;99351.23;1814576;77;20957;-81
2021/07/21 02:14:34;;;;;;;13.28;11.15;;;;;;;19.01;86.06;99352.98;1799527;78;21628;-80
2021/07/21 02:17:02;;;;;;;13.98;11.45;;;;;;;19.03;86.01;99341.59;1775551;79;20991;-81
2021/07/21 02:19:32;;;;;;;15.15;11.60;;;;;;;19.04;85.99;99348.08;1791440;79;21850;-81
2021/07/21 02:22:00;;;;;;;12.88;9.65;;;;;;;19.04;86.07;99340.56;1802566;78;20968;-81
2021/07/21 02:24:28;;;;;;;11.22;9.15;;;;;;;19.05;86.08;99341.70;1806494;78;21071;-80
2021/07/21 02:26:59;;;;;;;13.18;9.18;;;;;;;19.05;86.11;99341.70;1799592;79;21028;-81
2021/07/21 02:29:26;;;;;;;11.50;9.03;;;;;;;19.06;86.18;99350.03;1807695;79;21041;-81
2021/07/21 02:32:07;;;;;;;12.17;8.80;;;;;;;19.07;86.28;99349.00;1786493;78;21809;-81
2021/07/21 02:34:34;;;;;;;8.80;6.92;;;;;;;19.11;86.33;99357.47;1782942;78;20990;-80
2021/07/21 02:37:03;;;;;;;7.72;6.40;;;;;;;19.16;86.37;99352.33;1775998;79;20992;-81
2021/07/21 02:39:32;;;;;;;7.33;5.87;;;;;;;19.19;86.41;99355.10;1804216;78;20983;-80
2021/07/21 02:41:58;;;;;;;8.33;6.08;;;;;;;19.19;86.47;99355.92;1788639;79;21012;-80
2021/07/21 02:44:26;;;;;;;7.55;6.35;;;;;;;19.21;86.56;99347.72;1799954;78;21842;-80
2021/07/21 02:46:53;;;;;;;7.55;6.28;;;;;;;19.23;86.58;99351.84;1807413;78;20973;-80
2021/07/21 02:49:21;;;;;;;7.47;6.03;;;;;;;19.25;86.57;99352.45;1796971;78;21420;-80
2021/07/21 02:51:53;;;;;;;7.30;6.47;;;;;;;19.28;86.56;99356.05;1764005;79;21431;-81
2021/07/21 02:54:47;;;;;;;7.00;6.20;;;;;;;19.30;86.58;99359.38;1797038;78;21090;-80
2021/07/21 02:57:41;;;;;;;8.00;5.85;;;;;;;19.35;86.58;99360.09;1780717;78;21748;-80
2021/07/21 03:00:18;;;;;;;7.53;5.40;;;;;;;19.40;86.50;99367.02;1773555;79;21689;-81
2021/07/21 03:02:49;;;;;;;9.00;5.90;;;;;;;19.44;86.47;99369.06;1822028;78;20989;-80
2021/07/21 03:05:18;;;;;;;6.92;6.22;;;;;;;19.47;86.46;99368.34;1763423;79;21499;-80
2021/07/21 03:07:51;;;;;;;7.20;5.90;;;;;;;19.50;86.44;99373.31;1801712;78;21076;-80
2021/07/21 03:10:20;;;;;;;9.35;6.40;;;;;;;19.52;86.42;99370.73;1807083;78;21831;-80
2021/07/21 03:13:17;;;;;;;7.30;6.20;;;;;;;19.55;86.37;99373.00;1804370;79;20929;-80
2021/07/21 03:15:54;;;;;;;7.65;6.80;;;;;;;19.57;86.35;99372.81;1795726;78;20985;-80
2021/07/21 03:18:26;;;;;;;7.47;6.62;;;;;;;19.59;86.29;99377.45;1808602;78;21044;-80
2021/07/21 03:20:55;;;;;;;7.28;6.50;;;;;;;19.60;86.21;99376.45;1812619;77;20944;-80
2021/07/21 03:23:26;;;;;;;8.88;6.60;;;;;;;19.61;86.16;99380.77;1843311;77;23092;-80
2021/07/21 03:25:57;;;;;;;9.40;6.80;;;;;;;19.63;86.16;99375.52;1810741;77;20884;-80
2021/07/21 03:28:24;;;;;;;7.17;6.20;;;;;;;19.65;86.22;99379.33;1815585;77;21052;-81
2021/07/21 03:30:54;;;;;;;9.30;6.25;;;;;;;19.64;86.15;99376.34;1820805;77;20952;-80
2021/07/21 03:33:24;;;;;;;6.80;6.10;;;;;;;19.65;86.14;99381.48;1797910;77;21486;-80
2021/07/21 03:35:52;;;;;;;7.85;6.22;;;;;;;19.66;86.17;99387.15;1815337;77;21803;-81
2021/07/21 03:38:22;;;;;;;6.55;5.78;;;;;;;19.69;86.14;99385.94;1827317;77;20940;-81
2021/07/21 03:40:50;;;;;;;7.53;5.83;;;;;;;19.72;86.12;99378.83;1807792;77;20908;-81
2021/07/21 03:43:19;;;;;;;7.37;6.05;;;;;;;19.73;86.15;99378.61;1803882;78;21035;-81
2021/07/21 03:45:51;;;;;;;7.97;6.05;;;;;;;19.74;86.16;99372.73;1787586;80;20940;-81
2021/07/21 03:48:22;;;;;;;9.98;6.40;;;;;;;19.76;86.20;99376.03;1803615;77;21489;-81
2021/07/21 03:50:57;;;;;;;7.12;6.42;;;;;;;19.78;86.20;99365.10;1801514;77;20940;-80
2021/07/21 03:53:25;;;;;;;7.20;5.92;;;;;;;19.80;86.23;99370.59;1835889;77;21506;-80
2021/07/21 03:55:53;;;;;;;9.50;6.58;;;;;;;19.84;86.26;99371.81;1809451;77;20966;-80
2021/07/21 03:58:22;;;;;;;6.62;5.60;;;;;;;19.90;86.19;99378.22;1794249;77;21044;-80
2021/07/21 04:00:54;;;;;;;7.12;6.25;;;;;;;19.92;86.17;99376.15;1805789;77;21796;-80
2021/07/21 04:03:23;;;;;;;6.65;5.62;;;;;;;19.95;86.14;99378.41;1819409;77;21367;-78
2021/07/21 04:05:55;;;;;;;6.90;6.10;;;;;;;20.00;86.17;99383.47;1821451;77;21076;-78
2021/07/21 04:08:23;;;;;;;7.00;5.83;;;;;;;20.06;86.17;99380.45;1796560;77;20956;-78
2021/07/21 04:10:54;;;;;;;7.62;6.10;;;;;;;20.11;86.18;99377.99;1820823;77;21053;-78
2021/07/21 04:13:22;;;;;;;8.20;6.00;;;;;;;20.18;86.17;99387.38;1768048;77;21501;-86
2021/07/21 04:15:57;;;;;;;6.45;5.83;;;;;;;20.22;86.06;99382.72;1829405;77;21463;-80
2021/07/21 04:18:25;;;;;;;6.90;6.05;;;;;;;20.26;85.95;99381.25;1806399;77;21099;-76
2021/07/21 04:20:53;;;;;;;7.42;5.55;;;;;;;20.32;85.90;99391.68;1815599;78;20996;-77
2021/07/21 04:23:19;;;;;;;8.00;5.78;;;;;;;20.35;85.81;99384.55;1795881;77;20988;-78
2021/07/21 04:25:49;;;;;;;7.05;5.65;;;;;;;20.36;85.63;99384.85;1807638;78;21804;-77
2021/07/21 04:28:17;;;;;;;8.90;5.80;;;;;;;20.39;85.61;99384.97;1823197;77;21433;-79
2021/07/21 04:30:45;;;;;;;8.25;6.20;;;;;;;20.40;85.43;99379.91;1815687;77;21011;-78
2021/07/21 04:33:12;;;;;;;7.42;5.55;;;;;;;20.45;85.45;99374.77;1820206;77;20957;-76
2021/07/21 04:35:40;;;;;;;7.30;6.15;;;;;;;20.50;85.40;99383.02;1818585;77;20977;-79
2021/07/21 04:38:09;;;;;;;9.08;6.17;;;;;;;20.54;85.36;99382.38;1833767;77;22449;-80
2021/07/21 04:40:43;;;;;;;7.42;6.15;;;;;;;20.61;85.31;99385.56;1771081;78;21039;-78
2021/07/21 04:43:30;;;;;;;7.15;6.20;;;;;;;20.64;85.19;99386.47;1799368;77;21570;-77
2021/07/21 04:45:57;;;;;;;7.60;6.05;;;;;;;20.64;85.08;99385.95;1790721;78;21430;-77
2021/07/21 04:48:24;;;;;;;9.40;6.35;;;;;;;20.65;84.92;99386.78;1804882;77;21486;-77
2021/07/21 04:50:52;;;;;;;9.20;6.10;;;;;;;20.69;84.88;99385.34;1813368;77;21846;-77
2021/07/21 04:53:20;;;;;;;7.65;6.15;;;;;;;20.72;84.83;99390.27;1821130;78;20929;-77
2021/07/21 04:55:47;;;;;;;9.83;6.15;;;;;;;20.76;84.71;99399.05;1806159;78;21004;-78
2021/07/21 04:58:15;;;;;;;8.00;6.25;;;;;;;20.78;84.58;99396.97;1812977;77;21571;-77
2021/07/21 05:00:44;;;;;;;6.90;6.20;;;;;;;20.82;84.54;99390.65;1799027;78;21471;-77
2021/07/21 05:03:12;;;;;;;7.65;6.05;;;;;;;20.89;84.50;99395.48;1788783;78;22202;-78
2021/07/21 05:05:40;;;;;;;7.42;6.33;;;;;;;20.93;84.42;99391.33;1789001;78;21400;-77
2021/07/21 05:08:09;;;;;;;10.63;6.20;;;;;;;20.99;84.38;99393.17;1767410;78;21023;-77
2021/07/21 05:10:38;;;;;;;9.60;6.67;;;;;;;21.02;84.14;99391.91;1802710;77;21055;-78
2021/07/21 05:13:04;;;;;;;7.55;6.45;;;;;;;21.05;83.99;99399.56;1815969;77;20983;-78
2021/07/21 05:15:33;;;;;;;7.42;6.62;;;;;;;21.07;83.79;99402.84;1800859;77;22246;-78
2021/07/21 05:18:11;;;;;;;8.18;6.50;;;;;;;21.04;83.36;99397.92;1781581;78;21392;-78
2021/07/21 05:20:40;;;;;;;7.40;6.65;;;;;;;21.02;83.22;99391.91;1788152;80;20998;-78
2021/07/21 05:23:09;;;;;;;9.58;7.25;;;;;;;21.04;83.26;99386.66;1805199;77;20988;-77
2021/07/21 05:25:38;;;;;;;9.65;7.10;;;;;;;21.08;83.16;99383.02;1816960;78;20995;-78
2021/07/21 05:28:25;;;;;;;10.72;7.25;;;;;;;21.13;83.13;99385.86;1818788;78;21920;-78
2021/07/21 05:30:54;;;;;;;10.25;7.58;;;;;;;21.21;83.03;99384.80;1787075;77;21059;-78
2021/07/21 05:33:21;;;;;;;8.63;7.45;;;;;;;21.25;82.66;99387.38;1819618;77;21048;-77
2021/07/21 05:35:49;;;;;;;9.73;7.62;;;;;;;21.25;81.97;99390.06;1816294;79;21481;-77
2021/07/21 05:38:17;;;;;;;10.40;7.83;;;;;;;21.29;81.84;99389.44;1816166;79;21029;-78
2021/07/21 05:40:46;;;;;;;9.33;7.65;;;;;;;21.43;81.94;99391.55;1816853;79;21766;-79
2021/07/21 05:43:15;;;;;;;10.60;8.10;;;;;;;21.55;81.34;99385.77;1813620;78;20941;-78
2021/07/21 05:45:50;;;;;;;10.45;8.53;;;;;;;21.58;80.92;99389.88;1788931;80;21114;-78
2021/07/21 05:48:17;;;;;;;11.57;9.08;;;;;;;21.69;80.96;99399.41;1812190;77;20986;-78
2021/07/21 05:51:02;;;;;;;12.10;8.43;;;;;;;21.77;80.42;99397.51;1795476;78;20936;-78
2021/07/21 05:53:29;;;;;;;10.70;9.30;;;;;;;21.86;80.11;99393.51;1809303;78;21855;-79
2021/07/21 05:55:57;;;;;;;12.40;9.68;;;;;;;21.84;78.88;99390.22;1798114;77;20988;-79
2021/07/21 05:58:23;;;;;;;13.32;9.65;;;;;;;21.82;78.29;99387.76;1776766;78;21442;-76
2021/07/21 06:00:50;;;;;;;13.28;10.40;;;;;;;21.82;77.98;99386.41;1796717;77;20952;-80
2021/07/21 06:03:21;;;;;;;13.15;10.80;;;;;;;21.90;77.96;99387.98;1818217;78;21023;-78
2021/07/21 06:06:07;;;;;;;12.45;10.53;;;;;;;21.94;77.71;99379.80;1732518;81;22240;-81
2021/07/21 06:08:52;;;;;;;11.43;10.25;;;;;;;22.06;77.42;99375.86;1740548;80;21102;-81
2021/07/21 06:11:21;;;;;;;15.13;11.15;;;;;;;22.07;76.63;99372.98;1852897;77;21009;-80
2021/07/21 06:13:50;;;;;;;16.12;10.82;;;;;;;21.99;75.97;99381.30;1853363;77;21044;-80
2021/07/21 06:16:19;;;;;;;14.38;11.80;;;;;;;21.98;76.17;99379.12;1823025;77;21019;-79
2021/07/21 06:18:46;;;;;;;17.02;12.00;;;;;;;22.02;76.04;99380.05;1813629;78;21778;-78
2021/07/21 06:21:13;;;;;;;14.33;12.20;;;;;;;22.12;76.23;99387.95;1812673;77;20986;-80
2021/07/21 06:23:41;;;;;;;13.80;11.48;;;;;;;22.20;76.01;99387.67;1804808;77;21444;-79
2021/07/21 06:26:10;;;;;;;17.70;12.25;;;;;;;22.28;75.72;99398.13;1801183;77;21035;-79
2021/07/21 06:28:50;;;;;;;17.12;12.88;;;;;;;22.37;75.55;99396.50;1787222;77;21019;-81
2021/07/21 06:31:17;;;;;;;15.95;13.03;;;;;;;22.41;75.02;99399.88;1796514;79;22175;-80
2021/07/21 06:33:44;;;;;;;14.25;12.65;;;;;;;22.39;74.44;99400.63;1782648;77;21051;-79
2021/07/21 06:36:12;;;;;;;15.15;12.75;;;;;;;22.40;74.42;99404.14;1799788;77;21040;-79
2021/07/21 06:38:39;;;;;;;15.25;12.75;;;;;;;22.43;74.44;99401.83;1793846;77;21023;-80
2021/07/21 06:41:08;;;;;;;15.13;12.50;;;;;;;22.38;74.29;99405.69;1797056;77;21035;-80
2021/07/21 06:43:39;;;;;;;17.05;13.15;;;;;;;22.45;74.85;99400.25;1812081;77;21831;-82
2021/07/21 06:46:07;;;;;;;17.40;12.85;;;;;;;22.59;75.05;99401.78;1782311;77;21000;-80
2021/07/21 06:48:34;;;;;;;14.58;12.70;;;;;;;22.72;75.02;99400.27;1798968;77;21082;-81
2021/07/21 06:51:01;;;;;;;14.55;12.07;;;;;;;22.84;74.74;99403.88;1789609;79;21703;-80
2021/07/21 06:53:30;;;;;;;14.55;12.40;;;;;;;22.96;74.46;99409.86;1814173;79;21027;-80
2021/07/21 06:56:12;;;;;;;14.25;12.40;;;;;;;23.08;74.29;99410.23;1794033;77;21808;-80
2021/07/21 06:58:41;;;;;;;15.45;11.90;;;;;;;23.16;73.85;99423.90;1743577;78;21031;-82
2021/07/21 07:01:09;;;;;;;14.38;11.65;;;;;;;23.18;73.30;99415.62;1791779;77;21442;-80
2021/07/21 07:03:55;;;;;;;13.98;11.95;;;;;;;23.05;72.18;99415.23;1788888;79;20988;-85
2021/07/21 07:06:38;;;;;;;15.20;11.90;;;;;;;22.94;72.64;99416.00;1701946;82;21055;-80
2021/07/21 07:09:22;;;;;;;14.20;11.63;;;;;;;23.01;72.97;99415.41;1792563;77;22875;-82
2021/07/21 07:12:00;;;;;;;12.75;11.45;;;;;;;23.06;72.84;99412.31;1812707;78;21542;-79
2021/07/21 07:14:26;;;;;;;13.85;12.13;;;;;;;23.05;72.95;99407.98;1810640;77;21067;-83
2021/07/21 07:16:54;;;;;;;14.43;12.20;;;;;;;23.12;73.13;99403.86;1799749;77;20984;-81
2021/07/21 07:19:21;;;;;;;14.18;11.43;;;;;;;23.17;73.08;99405.36;1785752;77;20933;-79
2021/07/21 07:21:47;;;;;;;16.23;12.85;;;;;;;23.25;73.03;99400.98;1812130;77;22794;-80
2021/07/21 07:24:14;;;;;;;20.55;16.02;;;;;;;23.34;72.79;99398.80;1805334;78;21449;-80
2021/07/21 07:26:40;;;;;;;16.80;14.50;;;;;;;23.32;72.09;99401.72;1787948;80;20972;-79
2021/07/21 07:29:07;;;;;;;14.15;11.85;;;;;;;23.31;72.40;99401.43;1788514;80;21050;-79
2021/07/21 07:31:34;;;;;;;13.75;12.10;;;;;;;23.36;72.25;99394.84;1804283;78;20944;-80
2021/07/21 07:34:00;;;;;;;14.55;11.75;;;;;;;23.33;71.79;99396.63;1820657;78;22156;-80
2021/07/21 07:36:27;;;;;;;14.80;10.82;;;;;;;23.31;71.38;99396.56;1796935;77;21003;-80
2021/07/21 07:38:53;;;;;;;15.63;12.70;;;;;;;23.35;71.66;99398.56;1788594;80;20940;-79
2021/07/21 07:41:23;;;;;;;13.95;11.65;;;;;;;23.38;71.18;99395.44;1788507;79;21443;-79
2021/07/21 07:43:50;;;;;;;15.25;11.75;;;;;;;23.38;71.13;99396.78;1788614;80;20996;-79
2021/07/21 07:46:18;;;;;;;14.23;11.78;;;;;;;23.47;71.24;99397.81;1796536;77;21761;-80
2021/07/21 07:48:45;;;;;;;14.98;11.73;;;;;;;23.54;71.09;99392.59;1811361;77;21012;-79
2021/07/21 07:51:11;;;;;;;12.82;11.53;;;;;;;23.61;71.25;99395.23;1788872;80;20988;-79
2021/07/21 07:53:38;;;;;;;12.50;11.20;;;;;;;23.69;71.08;99393.03;1789021;80;21025;-79
2021/07/21 07:56:04;;;;;;;14.80;12.03;;;;;;;23.76;70.64;99392.94;1788813;80;20967;-79
2021/07/21 07:58:31;;;;;;;13.90;11.73;;;;;;;23.75;70.44;99387.78;1795722;77;21762;-79
2021/07/21 08:00:58;;;;;;;23.07;11.50;;;;;;;23.76;70.40;99392.94;1788619;80;20996;-79
2021/07/21 08:03:24;;;;;;;14.45;11.65;;;;;;;23.74;70.21;99388.31;1756055;80;20992;-79
2021/07/21 08:05:54;;;;;;;17.17;11.68;;;;;;;23.73;70.06;99393.38;1808007;78;21043;-79
2021/07/21 08:08:19;;;;;;;19.70;11.78;;;;;;;23.69;69.58;99396.26;1816551;77;20991;-80
2021/07/21 08:10:46;;;;;;;14.25;11.83;;;;;;;23.63;69.92;99391.77;1788607;80;21818;-80
2021/07/21 08:13:12;;;;;;;16.00;12.13;;;;;;;23.59;69.82;99398.16;1788913;80;20949;-80
2021/07/21 08:15:40;;;;;;;13.13;11.73;;;;;;;23.52;69.77;99397.40;1797163;78;20968;-80
2021/07/21 08:18:07;;;;;;;16.12;12.28;;;;;;;23.41;69.68;99393.62;1821004;78;21011;-80
2021/07/21 08:20:33;;;;;;;15.05;11.73;;;;;;;23.35;70.12;99392.36;1800344;78;21060;-79
2021/07/21 08:23:00;;;;;;;12.40;10.63;;;;;;;23.42;70.64;99389.87;1801352;78;22154;-80
2021/07/21 08:25:27;;;;;;;15.10;11.03;;;;;;;23.49;70.68;99393.83;1807749;79;21480;-79
2021/07/21 08:27:55;;;;;;;17.17;12.40;;;;;;;23.58;70.10;99393.80;1807822;79;20949;-80
2021/07/21 08:30:23;;;;;;;13.85;11.78;;;;;;;23.70;70.09;99383.06;1807679;78;21029;-79
2021/07/21 08:32:51;;;;;;;14.90;12.35;;;;;;;23.89;69.84;99384.63;1809954;79;21466;-80
2021/07/21 08:35:20;;;;;;;15.53;12.55;;;;;;;24.10;70.10;99380.54;1782464;79;21820;-79
2021/07/21 08:37:47;;;;;;;16.67;11.73;;;;;;;24.25;69.07;99383.60;1807839;79;21508;-79
2021/07/21 08:40:15;;;;;;;14.45;12.37;;;;;;;24.24;68.19;99378.45;1783441;79;20952;-79
2021/07/21 08:42:42;;;;;;;17.73;12.05;;;;;;;24.19;67.93;99375.61;1775866;80;21270;-79
2021/07/21 08:45:10;;;;;;;13.95;12.28;;;;;;;24.26;68.18;99382.55;1783055;79;21039;-80
2021/07/21 08:47:37;;;;;;;15.20;11.78;;;;;;;24.28;67.61;99383.66;1781891;79;21853;-80
2021/07/21 08:50:06;;;;;;;13.25;11.73;;;;;;;24.32;67.51;99384.02;1776653;79;21396;-80
2021/07/21 08:52:34;;;;;;;15.45;12.43;;;;;;;24.41;67.22;99382.61;1796114;79;21391;-79
2021/07/21 08:55:02;;;;;;;16.80;14.38;;;;;;;24.40;66.18;99375.58;1808006;79;21607;-80
2021/07/21 08:57:30;;;;;;;17.40;13.48;;;;;;;24.39;66.43;99373.94;1780338;79;21039;-80
2021/07/21 08:59:58;;;;;;;14.78;11.68;;;;;;;24.33;66.45;99362.23;1776189;80;22919;-79
2021/07/21 09:02:25;;;;;;;14.13;11.48;;;;;;;24.31;66.54;99357.56;1780288;79;20977;-80
2021/07/21 09:04:52;;;;;;;14.65;11.18;;;;;;;24.40;66.14;99353.98;1808304;79;20988;-80
2021/07/21 09:07:19;;;;;;;14.65;12.00;;;;;;;24.51;66.33;99342.34;1807807;79;21052;-80
2021/07/21 09:09:45;;;;;;;16.37;13.15;;;;;;;24.54;65.95;99354.04;1807399;79;20980;-80
2021/07/21 09:12:12;;;;;;;14.18;12.05;;;;;;;24.48;65.99;99354.45;1807783;79;21824;-80
2021/07/21 09:14:39;;;;;;;21.82;18.73;;;;;;;24.50;66.70;99355.55;1777981;79;20988;-80
2021/07/21 09:17:14;;;;;;;16.50;13.75;;;;;;;24.46;65.71;99362.50;1776012;80;20988;-79
2021/07/21 09:19:45;;;;;;;16.30;12.68;;;;;;;24.43;65.89;99365.67;1807813;79;20957;-80
2021/07/21 09:22:25;;;;;;;15.08;13.00;;;;;;;24.36;65.70;99360.39;1800274;79;20946;-80
2021/07/21 09:25:18;;;;;;;17.73;12.82;;;;;;;24.36;66.58;99360.39;1778005;79;22775;-80
2021/07/21 09:27:47;;;;;;;15.72;13.22;;;;;;;24.53;66.39;99366.72;1776003;80;21429;-79
2021/07/21 09:30:18;;;;;;;17.15;12.95;;;;;;;24.57;66.29;99361.66;1768289;79;20957;-79
2021/07/21 09:33:13;;;;;;;15.55;12.78;;;;;;;24.53;66.22;99365.37;1807416;79;20945;-80
2021/07/21 09:35:48;;;;;;;13.93;12.15;;;;;;;24.55;66.53;99367.83;1796207;78;20997;-84
2021/07/21 09:38:17;;;;;;;16.35;11.63;;;;;;;24.57;65.96;99377.85;1779678;79;22213;-83
2021/07/21 09:40:48;;;;;;;14.30;11.20;;;;;;;24.50;65.50;99377.97;1784243;79;21146;-84
2021/07/21 09:43:18;;;;;;;12.58;11.10;;;;;;;24.51;65.28;99382.34;1776969;79;21428;-81
2021/07/21 09:45:44;;;;;;;18.75;12.82;;;;;;;24.44;64.96;99374.89;1777124;79;20980;-83
2021/07/21 09:48:11;;;;;;;14.73;12.43;;;;;;;24.40;65.59;99379.09;1784635;78;20976;-82
2021/07/21 09:50:43;;;;;;;14.13;12.05;;;;;;;24.48;65.79;99373.34;1792997;79;21749;-84
2021/07/21 09:53:15;;;;;;;12.85;10.88;;;;;;;24.59;65.95;99364.11;1776213;80;21475;-83
2021/07/21 09:55:44;;;;;;;14.93;11.20;;;;;;;24.62;65.37;99369.05;1775739;80;21475;-82
2021/07/21 09:58:24;;;;;;;13.68;10.60;;;;;;;24.51;64.82;99368.84;1791390;79;20953;-86
2021/07/21 10:00:49;;;;;;;14.95;11.85;;;;;;;24.36;64.88;99369.84;1788936;79;20985;-85
2021/07/21 10:03:19;;;;;;;13.72;10.90;;;;;;;24.22;65.26;99369.74;1807896;79;21753;-80
2021/07/21 10:06:10;;;;;;;12.50;10.82;;;;;;;24.14;65.52;99372.28;1776897;79;20933;-81
2021/07/21 10:08:43;;;;;;;16.53;11.97;;;;;;;24.05;65.84;99363.42;1785373;78;21564;-81
2021/07/21 10:11:42;;;;;;;15.35;11.25;;;;;;;23.91;65.78;99369.03;1789042;79;21710;-81
2021/07/21 10:14:13;;;;;;;15.65;13.03;;;;;;;23.85;66.18;99375.37;1775916;80;21047;-81
2021/07/21 10:16:48;;;;;;;17.92;12.98;;;;;;;23.85;66.41;99363.23;1786147;77;22943;-80
2021/07/21 10:19:24;;;;;;;12.82;11.50;;;;;;;23.78;66.51;99368.44;1776853;79;20945;-80
2021/07/21 10:21:57;;;;;;;13.70;11.30;;;;;;;23.70;66.68;99358.27;1745921;79;20960;-81
2021/07/21 10:24:25;;;;;;;13.08;11.63;;;;;;;23.69;66.89;99355.81;1793556;79;20964;-80
2021/07/21 10:26:53;;;;;;;17.90;11.93;;;;;;;23.67;67.22;99353.88;1790603;79;21000;-82
2021/07/21 10:29:21;;;;;;;13.32;11.40;;;;;;;23.66;67.08;99346.33;1812994;78;21794;-82
2021/07/21 10:31:48;;;;;;;12.75;11.18;;;;;;;23.66;67.46;99343.63;1811727;79;21007;-79
2021/07/21 10:34:17;;;;;;;14.65;11.12;;;;;;;23.71;67.27;99344.27;1809949;78;20949;-82
2021/07/21 10:36:43;;;;;;;12.50;10.80;;;;;;;23.80;67.17;99348.80;1797678;79;20937;-81
2021/07/21 10:39:31;;;;;;;12.90;11.50;;;;;;;23.86;67.02;99344.65;1805733;79;20993;-81
2021/07/21 10:42:08;;;;;;;14.40;11.38;;;;;;;23.96;66.98;99347.59;1812764;79;22894;-80
2021/07/21 10:44:35;;;;;;;13.45;11.55;;;;;;;24.08;67.24;99341.37;1811317;79;20849;-80
2021/07/21 10:47:02;;;;;;;15.10;11.18;;;;;;;24.22;67.34;99342.76;1781345;80;20941;-79
2021/07/21 10:49:45;;;;;;;16.45;11.43;;;;;;;24.31;66.32;99348.62;1763184;77;21068;-80
2021/07/21 10:55:02;;;;;;;15.18;11.25;;;;;;;24.26;66.15;99354.20;1798230;79;21890;-79
2021/07/21 11:00:28;;;;;;;14.55;10.58;;;;;;;24.23;66.42;99354.69;1797441;77;20984;-78
2021/07/21 11:03:23;;;;;;;12.98;10.93;;;;;;;24.26;66.49;99352.05;1805602;79;21070;-75
2021/07/21 11:06:05;;;;;;;13.68;10.80;;;;;;;24.31;66.75;99360.27;1809867;77;21450;-81
2021/07/21 11:08:32;;;;;;;16.23;10.35;;;;;;;24.34;66.59;99359.81;1792535;78;21790;-75
2021/07/21 11:11:19;;;;;;;15.32;10.63;;;;;;;24.35;66.49;99360.63;1783280;79;20948;-77
2021/07/21 11:13:55;;;;;;;11.43;9.80;;;;;;;24.34;66.26;99355.77;1799447;79;21478;-77
2021/07/21 11:16:45;;;;;;;17.57;9.88;;;;;;;24.39;66.03;99351.81;1781059;80;20953;-79
2021/07/21 11:19:27;;;;;;;12.07;10.20;;;;;;;24.39;65.43;99357.21;1774080;80;21497;-77
2021/07/21 11:21:58;;;;;;;12.73;9.43;;;;;;;24.33;64.92;99355.48;1774922;80;22240;-77
2021/07/21 11:24:28;;;;;;;12.78;9.90;;;;;;;24.33;65.21;99355.48;1781802;80;20944;-77
2021/07/21 11:26:55;;;;;;;11.55;9.85;;;;;;;24.36;65.08;99353.65;1781801;80;20938;-77
2021/07/21 11:29:32;;;;;;;11.18;9.65;;;;;;;24.40;65.32;99356.69;1795251;78;21060;-77
2021/07/21 11:31:59;;;;;;;11.35;9.83;;;;;;;24.39;65.24;99346.41;1792067;78;21442;-77
2021/07/21 11:34:36;;;;;;;14.35;10.68;;;;;;;24.45;65.20;99342.78;1805691;78;22550;-77
2021/07/21 11:37:09;;;;;;;17.92;13.08;;;;;;;24.45;65.17;99340.08;1760677;80;21007;-77
2021/07/21 11:39:47;;;;;;;16.02;11.38;;;;;;;24.49;65.16;99342.59;1787376;77;21057;-79
2021/07/21 11:42:38;;;;;;;13.78;10.15;;;;;;;24.54;65.37;99333.26;1810642;78;21467;-79
2021/07/21 11:45:18;;;;;;;16.45;10.32;;;;;;;24.58;64.99;99334.94;1780619;79;21033;-78